sensor_id;sensor_type;location;lat;lon;timestamp;pressure;altitude;pressure_sealevel;temperature;humidity
81704;BME280;71117;52.352;4.808;2023-12-14T00:01:23;101154.28;;;6.29;88.32
81704;BME280;71117;52.352;4.808;2023-12-14T00:03:49;101153.25;;;6.25;88.32
81704;BME280;71117;52.352;4.808;2023-12-14T00:06:14;101150.81;;;6.30;88.19
81704;BME280;71117;52.352;4.808;2023-12-14T00:08:40;101154.97;;;6.25;88.55
81704;BME280;71117;52.352;4.808;2023-12-14T00:11:11;101165.53;;;6.26;87.61
81704;BME280;71117;52.352;4.808;2023-12-14T00:13:37;101161.66;;;6.39;88.44
81704;BME280;71117;52.352;4.808;2023-12-14T00:16:08;101158.50;;;6.25;88.29
81704;BME280;71117;52.352;4.808;2023-12-14T00:18:34;101178.78;;;6.29;88.24
81704;BME280;71117;52.352;4.808;2023-12-14T00:20:59;101177.28;;;6.36;88.27
81704;BME280;71117;52.352;4.808;2023-12-14T00:23:25;101179.72;;;6.31;88.84
81704;BME280;71117;52.352;4.808;2023-12-14T00:25:50;101185.47;;;6.23;88.46
81704;BME280;71117;52.352;4.808;2023-12-14T00:28:16;101190.84;;;6.26;87.95
81704;BME280;71117;52.352;4.808;2023-12-14T00:30:41;101185.94;;;6.13;88.41
81704;BME280;71117;52.352;4.808;2023-12-14T00:33:12;101193.91;;;6.16;88.94
81704;BME280;71117;52.352;4.808;2023-12-14T00:35:40;101210.50;;;6.15;88.78
81704;BME280;71117;52.352;4.808;2023-12-14T00:38:08;101202.38;;;6.08;89.00
81704;BME280;71117;52.352;4.808;2023-12-14T00:40:36;101205.75;;;6.06;88.89
81704;BME280;71117;52.352;4.808;2023-12-14T00:43:01;101215.75;;;6.15;88.47
81704;BME280;71117;52.352;4.808;2023-12-14T00:45:34;101220.03;;;6.13;88.33
81704;BME280;71117;52.352;4.808;2023-12-14T00:48:03;101236.91;;;6.19;89.14
81704;BME280;71117;52.352;4.808;2023-12-14T00:50:28;101235.22;;;6.21;88.17
81704;BME280;71117;52.352;4.808;2023-12-14T00:52:54;101248.34;;;6.21;88.36
81704;BME280;71117;52.352;4.808;2023-12-14T00:55:22;101253.78;;;6.26;88.40
81704;BME280;71117;52.352;4.808;2023-12-14T00:57:50;101247.84;;;6.30;88.29
81704;BME280;71117;52.352;4.808;2023-12-14T01:00:15;101261.91;;;6.32;88.49
81704;BME280;71117;52.352;4.808;2023-12-14T01:02:41;101256.53;;;6.29;88.07
81704;BME280;71117;52.352;4.808;2023-12-14T01:05:07;101266.59;;;6.18;88.05
81704;BME280;71117;52.352;4.808;2023-12-14T01:07:32;101275.78;;;6.29;87.35
81704;BME280;71117;52.352;4.808;2023-12-14T01:10:00;101273.22;;;6.31;87.88
81704;BME280;71117;52.352;4.808;2023-12-14T01:12:30;101278.47;;;6.31;87.88
81704;BME280;71117;52.352;4.808;2023-12-14T01:14:58;101285.38;;;6.29;87.67
81704;BME280;71117;52.352;4.808;2023-12-14T01:17:24;101287.94;;;6.27;88.07
81704;BME280;71117;52.352;4.808;2023-12-14T01:19:49;101294.91;;;6.27;87.34
81704;BME280;71117;52.352;4.808;2023-12-14T01:22:15;101302.66;;;6.24;87.23
81704;BME280;71117;52.352;4.808;2023-12-14T01:24:50;101302.91;;;6.30;87.72
81704;BME280;71117;52.352;4.808;2023-12-14T01:27:18;101306.22;;;6.26;87.76
81704;BME280;71117;52.352;4.808;2023-12-14T01:29:44;101306.84;;;6.20;87.57
81704;BME280;71117;52.352;4.808;2023-12-14T01:32:12;101297.84;;;6.14;88.24
81704;BME280;71117;52.352;4.808;2023-12-14T01:34:39;101314.16;;;6.06;88.42
81704;BME280;71117;52.352;4.808;2023-12-14T01:37:05;101319.75;;;6.16;88.84
81704;BME280;71117;52.352;4.808;2023-12-14T01:39:30;101324.00;;;6.12;88.08
81704;BME280;71117;52.352;4.808;2023-12-14T01:41:56;101331.72;;;6.09;88.23
81704;BME280;71117;52.352;4.808;2023-12-14T01:44:21;101337.28;;;6.17;88.26
81704;BME280;71117;52.352;4.808;2023-12-14T01:46:46;101339.66;;;6.10;88.38
81704;BME280;71117;52.352;4.808;2023-12-14T01:49:12;101346.75;;;6.13;87.92
81704;BME280;71117;52.352;4.808;2023-12-14T01:51:40;101350.13;;;6.10;87.33
81704;BME280;71117;52.352;4.808;2023-12-14T01:54:05;101352.63;;;6.07;87.97
81704;BME280;71117;52.352;4.808;2023-12-14T01:56:31;101356.72;;;6.01;87.93
81704;BME280;71117;52.352;4.808;2023-12-14T01:58:56;101354.72;;;5.95;88.17
81704;BME280;71117;52.352;4.808;2023-12-14T02:01:33;101360.97;;;5.99;88.14
81704;BME280;71117;52.352;4.808;2023-12-14T02:04:00;101377.88;;;6.05;88.03
81704;BME280;71117;52.352;4.808;2023-12-14T02:06:26;101373.88;;;6.14;88.00
81704;BME280;71117;52.352;4.808;2023-12-14T02:08:55;101379.84;;;6.11;87.28
81704;BME280;71117;52.352;4.808;2023-12-14T02:11:23;101386.00;;;6.12;87.80
81704;BME280;71117;52.352;4.808;2023-12-14T02:13:51;101385.03;;;6.09;87.69
81704;BME280;71117;52.352;4.808;2023-12-14T02:16:19;101390.34;;;6.11;87.66
81704;BME280;71117;52.352;4.808;2023-12-14T02:18:45;101398.84;;;6.25;87.66
81704;BME280;71117;52.352;4.808;2023-12-14T02:21:10;101397.19;;;6.07;87.58
81704;BME280;71117;52.352;4.808;2023-12-14T02:23:43;101401.81;;;6.13;87.03
81704;BME280;71117;52.352;4.808;2023-12-14T02:26:14;101399.56;;;6.01;86.75
81704;BME280;71117;52.352;4.808;2023-12-14T02:28:39;101424.59;;;6.14;86.32
81704;BME280;71117;52.352;4.808;2023-12-14T02:31:05;101418.69;;;6.00;86.40
81704;BME280;71117;52.352;4.808;2023-12-14T02:33:30;101427.56;;;6.02;87.50
81704;BME280;71117;52.352;4.808;2023-12-14T02:36:04;101422.44;;;6.05;86.64
81704;BME280;71117;52.352;4.808;2023-12-14T02:38:32;101421.31;;;6.00;86.59
81704;BME280;71117;52.352;4.808;2023-12-14T02:40:58;101426.72;;;6.03;85.43
81704;BME280;71117;52.352;4.808;2023-12-14T02:43:24;101425.81;;;6.03;86.02
81704;BME280;71117;52.352;4.808;2023-12-14T02:45:49;101431.28;;;6.07;85.25
81704;BME280;71117;52.352;4.808;2023-12-14T02:48:15;101436.25;;;6.01;84.77
81704;BME280;71117;52.352;4.808;2023-12-14T02:50:44;101438.78;;;6.00;84.88
81704;BME280;71117;52.352;4.808;2023-12-14T02:53:09;101442.44;;;6.03;85.30
81704;BME280;71117;52.352;4.808;2023-12-14T02:55:34;101441.22;;;5.95;84.66
81704;BME280;71117;52.352;4.808;2023-12-14T02:58:00;101453.00;;;6.05;84.59
81704;BME280;71117;52.352;4.808;2023-12-14T03:00:25;101445.22;;;6.06;84.36
81704;BME280;71117;52.352;4.808;2023-12-14T03:02:50;101452.78;;;6.00;84.75
81704;BME280;71117;52.352;4.808;2023-12-14T03:05:16;101454.03;;;6.08;83.88
81704;BME280;71117;52.352;4.808;2023-12-14T03:07:41;101457.78;;;6.14;84.20
81704;BME280;71117;52.352;4.808;2023-12-14T03:10:10;101449.28;;;6.19;83.66
81704;BME280;71117;52.352;4.808;2023-12-14T03:12:35;101458.59;;;6.13;83.96
81704;BME280;71117;52.352;4.808;2023-12-14T03:15:00;101450.09;;;5.99;84.50
81704;BME280;71117;52.352;4.808;2023-12-14T03:17:26;101461.75;;;6.05;84.20
81704;BME280;71117;52.352;4.808;2023-12-14T03:19:54;101463.66;;;5.90;84.39
81704;BME280;71117;52.352;4.808;2023-12-14T03:22:22;101464.94;;;5.98;84.27
81704;BME280;71117;52.352;4.808;2023-12-14T03:24:56;101472.13;;;5.84;84.78
81704;BME280;71117;52.352;4.808;2023-12-14T03:27:22;101467.06;;;5.89;84.84
81704;BME280;71117;52.352;4.808;2023-12-14T03:29:53;101459.66;;;5.79;83.78
81704;BME280;71117;52.352;4.808;2023-12-14T03:32:23;101463.00;;;5.76;84.09
81704;BME280;71117;52.352;4.808;2023-12-14T03:34:48;101471.53;;;5.72;83.68
81704;BME280;71117;52.352;4.808;2023-12-14T03:37:16;101468.72;;;5.68;84.09
81704;BME280;71117;52.352;4.808;2023-12-14T03:39:42;101461.81;;;5.70;83.78
81704;BME280;71117;52.352;4.808;2023-12-14T03:42:07;101469.28;;;5.80;83.66
81704;BME280;71117;52.352;4.808;2023-12-14T03:44:32;101474.47;;;5.78;84.06
81704;BME280;71117;52.352;4.808;2023-12-14T03:47:00;101463.53;;;5.69;83.50
81704;BME280;71117;52.352;4.808;2023-12-14T03:49:26;101472.00;;;5.64;83.40
81704;BME280;71117;52.352;4.808;2023-12-14T03:51:51;101482.63;;;5.67;82.77
81704;BME280;71117;52.352;4.808;2023-12-14T03:54:17;101488.56;;;5.63;83.54
81704;BME280;71117;52.352;4.808;2023-12-14T03:56:42;101488.56;;;5.63;83.79
81704;BME280;71117;52.352;4.808;2023-12-14T03:59:07;101491.09;;;5.61;82.96
81704;BME280;71117;52.352;4.808;2023-12-14T04:01:35;101489.28;;;5.60;82.98
81704;BME280;71117;52.352;4.808;2023-12-14T04:04:10;101489.38;;;5.62;83.24
81704;BME280;71117;52.352;4.808;2023-12-14T04:06:36;101498.75;;;5.56;83.35
81704;BME280;71117;52.352;4.808;2023-12-14T04:09:01;101502.25;;;5.57;83.75
81704;BME280;71117;52.352;4.808;2023-12-14T04:11:27;101503.28;;;5.61;82.20
81704;BME280;71117;52.352;4.808;2023-12-14T04:13:53;101496.44;;;5.45;83.14
81704;BME280;71117;52.352;4.808;2023-12-14T04:16:22;101500.75;;;5.44;83.37
81704;BME280;71117;52.352;4.808;2023-12-14T04:18:48;101511.38;;;5.47;83.39
81704;BME280;71117;52.352;4.808;2023-12-14T04:21:14;101532.28;;;5.46;82.90
81704;BME280;71117;52.352;4.808;2023-12-14T04:23:42;101530.78;;;5.51;82.89
81704;BME280;71117;52.352;4.808;2023-12-14T04:26:10;101532.28;;;5.46;83.13
81704;BME280;71117;52.352;4.808;2023-12-14T04:28:35;101537.63;;;5.49;82.98
81704;BME280;71117;52.352;4.808;2023-12-14T04:31:03;101538.03;;;5.56;82.93
81704;BME280;71117;52.352;4.808;2023-12-14T04:33:31;101543.66;;;5.46;83.18
81704;BME280;71117;52.352;4.808;2023-12-14T04:35:57;101552.75;;;5.54;82.61
81704;BME280;71117;52.352;4.808;2023-12-14T04:38:29;101554.84;;;5.44;84.01
81704;BME280;71117;52.352;4.808;2023-12-14T04:40:55;101569.06;;;5.49;83.34
81704;BME280;71117;52.352;4.808;2023-12-14T04:43:23;101568.94;;;5.46;82.78
81704;BME280;71117;52.352;4.808;2023-12-14T04:45:48;101578.66;;;5.48;82.01
81704;BME280;71117;52.352;4.808;2023-12-14T04:48:14;101589.78;;;5.44;82.02
81704;BME280;71117;52.352;4.808;2023-12-14T04:50:39;101592.88;;;5.53;82.17
81704;BME280;71117;52.352;4.808;2023-12-14T04:53:04;101608.47;;;5.50;82.03
81704;BME280;71117;52.352;4.808;2023-12-14T04:55:30;101611.88;;;5.49;82.33
81704;BME280;71117;52.352;4.808;2023-12-14T04:58:01;101625.78;;;5.48;82.57
81704;BME280;71117;52.352;4.808;2023-12-14T05:00:26;101620.63;;;5.50;82.78
81704;BME280;71117;52.352;4.808;2023-12-14T05:02:52;101634.84;;;5.55;81.94
81704;BME280;71117;52.352;4.808;2023-12-14T05:05:17;101619.25;;;5.56;82.44
81704;BME280;71117;52.352;4.808;2023-12-14T05:07:42;101624.25;;;5.52;82.84
81704;BME280;71117;52.352;4.808;2023-12-14T05:10:11;101627.47;;;5.64;82.99
81704;BME280;71117;52.352;4.808;2023-12-14T05:12:42;101625.50;;;5.60;83.43
81704;BME280;71117;52.352;4.808;2023-12-14T05:15:10;101627.81;;;5.54;83.11
81704;BME280;71117;52.352;4.808;2023-12-14T05:17:45;101638.06;;;5.49;82.71
81704;BME280;71117;52.352;4.808;2023-12-14T05:20:13;101647.06;;;5.54;82.49
81704;BME280;71117;52.352;4.808;2023-12-14T05:22:38;101638.38;;;5.55;82.92
81704;BME280;71117;52.352;4.808;2023-12-14T05:25:12;101650.84;;;5.43;83.54
81704;BME280;71117;52.352;4.808;2023-12-14T05:27:40;101651.34;;;5.52;83.59
81704;BME280;71117;52.352;4.808;2023-12-14T05:30:05;101658.44;;;5.55;83.08
81704;BME280;71117;52.352;4.808;2023-12-14T05:32:36;101650.38;;;5.50;83.07
81704;BME280;71117;52.352;4.808;2023-12-14T05:35:02;101667.56;;;5.45;82.70
81704;BME280;71117;52.352;4.808;2023-12-14T05:37:27;101664.19;;;5.48;82.96
81704;BME280;71117;52.352;4.808;2023-12-14T05:40:03;101666.75;;;5.46;82.67
81704;BME280;71117;52.352;4.808;2023-12-14T05:42:29;101676.00;;;5.40;83.49
81704;BME280;71117;52.352;4.808;2023-12-14T05:44:56;101678.75;;;5.43;83.30
81704;BME280;71117;52.352;4.808;2023-12-14T05:47:23;101682.75;;;5.52;82.78
81704;BME280;71117;52.352;4.808;2023-12-14T05:49:54;101679.19;;;5.50;83.12
81704;BME280;71117;52.352;4.808;2023-12-14T05:52:22;101688.13;;;5.55;82.09
81704;BME280;71117;52.352;4.808;2023-12-14T05:54:50;101675.16;;;5.57;82.97
81704;BME280;71117;52.352;4.808;2023-12-14T05:57:18;101691.44;;;5.51;82.43
81704;BME280;71117;52.352;4.808;2023-12-14T05:59:54;101691.94;;;5.44;81.93
81704;BME280;71117;52.352;4.808;2023-12-14T06:02:24;101697.41;;;5.49;82.11
81704;BME280;71117;52.352;4.808;2023-12-14T06:04:53;101709.91;;;5.54;82.19
81704;BME280;71117;52.352;4.808;2023-12-14T06:07:20;101711.56;;;5.52;81.80
81704;BME280;71117;52.352;4.808;2023-12-14T06:10:05;101717.63;;;5.51;82.61
81704;BME280;71117;52.352;4.808;2023-12-14T06:12:31;101725.31;;;5.65;82.04
81704;BME280;71117;52.352;4.808;2023-12-14T06:14:56;101708.00;;;5.50;82.76
81704;BME280;71117;52.352;4.808;2023-12-14T06:17:22;101723.19;;;5.57;82.50
81704;BME280;71117;52.352;4.808;2023-12-14T06:19:47;101720.00;;;5.63;82.12
81704;BME280;71117;52.352;4.808;2023-12-14T06:22:13;101713.31;;;5.52;81.66
81704;BME280;71117;52.352;4.808;2023-12-14T06:24:41;101730.97;;;5.56;82.47
81704;BME280;71117;52.352;4.808;2023-12-14T06:27:13;101732.78;;;5.57;82.82
81704;BME280;71117;52.352;4.808;2023-12-14T06:29:39;101741.28;;;5.53;82.12
81704;BME280;71117;52.352;4.808;2023-12-14T06:32:04;101747.16;;;5.49;82.10
81704;BME280;71117;52.352;4.808;2023-12-14T06:34:33;101751.44;;;5.47;82.49
81704;BME280;71117;52.352;4.808;2023-12-14T06:37:01;101763.38;;;5.58;82.15
81704;BME280;71117;52.352;4.808;2023-12-14T06:39:28;101771.38;;;5.61;81.83
81704;BME280;71117;52.352;4.808;2023-12-14T06:41:53;101770.16;;;5.54;82.24
81704;BME280;71117;52.352;4.808;2023-12-14T06:44:21;101778.84;;;5.53;82.56
81704;BME280;71117;52.352;4.808;2023-12-14T06:46:49;101769.78;;;5.47;81.57
81704;BME280;71117;52.352;4.808;2023-12-14T06:49:15;101775.91;;;5.47;81.67
81704;BME280;71117;52.352;4.808;2023-12-14T06:51:42;101789.91;;;5.48;80.93
81704;BME280;71117;52.352;4.808;2023-12-14T06:54:10;101795.91;;;5.62;80.80
81704;BME280;71117;52.352;4.808;2023-12-14T06:56:45;101797.50;;;5.60;81.20
81704;BME280;71117;52.352;4.808;2023-12-14T06:59:13;101792.59;;;5.66;81.74
81704;BME280;71117;52.352;4.808;2023-12-14T07:01:39;101802.09;;;5.64;81.46
81704;BME280;71117;52.352;4.808;2023-12-14T07:04:06;101796.38;;;5.54;81.54
81704;BME280;71117;52.352;4.808;2023-12-14T07:06:33;101803.97;;;5.50;81.62
81704;BME280;71117;52.352;4.808;2023-12-14T07:09:02;101817.91;;;5.49;82.20
81704;BME280;71117;52.352;4.808;2023-12-14T07:11:35;101811.13;;;5.52;80.88
81704;BME280;71117;52.352;4.808;2023-12-14T07:14:01;101808.81;;;5.42;80.79
81704;BME280;71117;52.352;4.808;2023-12-14T07:16:26;101811.63;;;5.45;80.86
81704;BME280;71117;52.352;4.808;2023-12-14T07:18:51;101813.22;;;5.43;81.10
81704;BME280;71117;52.352;4.808;2023-12-14T07:21:17;101825.34;;;5.41;80.93
81704;BME280;71117;52.352;4.808;2023-12-14T07:23:42;101829.94;;;5.45;81.49
81704;BME280;71117;52.352;4.808;2023-12-14T07:26:08;101821.09;;;5.43;81.04
81704;BME280;71117;52.352;4.808;2023-12-14T07:28:35;101826.50;;;5.46;81.17
81704;BME280;71117;52.352;4.808;2023-12-14T07:31:03;101830.84;;;5.46;81.57
81704;BME280;71117;52.352;4.808;2023-12-14T07:33:29;101828.03;;;5.43;80.47
81704;BME280;71117;52.352;4.808;2023-12-14T07:35:54;101831.31;;;5.39;80.78
81704;BME280;71117;52.352;4.808;2023-12-14T07:38:22;101841.78;;;5.39;81.46
81704;BME280;71117;52.352;4.808;2023-12-14T07:43:28;101841.44;;;5.32;82.42
81704;BME280;71117;52.352;4.808;2023-12-14T07:46:02;101842.28;;;5.31;82.30
81704;BME280;71117;52.352;4.808;2023-12-14T07:48:27;101837.22;;;5.35;81.60
81704;BME280;71117;52.352;4.808;2023-12-14T07:50:53;101843.44;;;5.37;81.52
81704;BME280;71117;52.352;4.808;2023-12-14T07:53:22;101845.91;;;5.34;82.56
81704;BME280;71117;52.352;4.808;2023-12-14T07:55:47;101841.56;;;5.34;82.54
81704;BME280;71117;52.352;4.808;2023-12-14T07:58:15;101843.72;;;5.26;81.95
81704;BME280;71117;52.352;4.808;2023-12-14T08:00:40;101849.09;;;5.28;82.11
81704;BME280;71117;52.352;4.808;2023-12-14T08:03:08;101854.69;;;5.19;82.02
81704;BME280;71117;52.352;4.808;2023-12-14T08:05:34;101852.47;;;5.11;83.16
81704;BME280;71117;52.352;4.808;2023-12-14T08:07:59;101855.56;;;5.03;83.08
81704;BME280;71117;52.352;4.808;2023-12-14T08:10:24;101860.38;;;4.96;83.84
81704;BME280;71117;52.352;4.808;2023-12-14T08:12:52;101866.16;;;4.90;83.41
81704;BME280;71117;52.352;4.808;2023-12-14T08:15:23;101873.38;;;4.80;84.26
81704;BME280;71117;52.352;4.808;2023-12-14T08:17:51;101861.94;;;4.63;84.74
81704;BME280;71117;52.352;4.808;2023-12-14T08:20:19;101866.75;;;4.55;85.20
81704;BME280;71117;52.352;4.808;2023-12-14T08:22:45;101885.59;;;4.49;85.47
81704;BME280;71117;52.352;4.808;2023-12-14T08:25:13;101883.69;;;4.47;86.10
81704;BME280;71117;52.352;4.808;2023-12-14T08:27:43;101894.97;;;4.46;86.89
81704;BME280;71117;52.352;4.808;2023-12-14T08:30:12;101910.38;;;4.41;86.81
81704;BME280;71117;52.352;4.808;2023-12-14T08:32:37;101902.91;;;4.33;86.92
81704;BME280;71117;52.352;4.808;2023-12-14T08:35:12;101917.03;;;4.36;86.97
81704;BME280;71117;52.352;4.808;2023-12-14T08:37:44;101918.22;;;4.41;86.86
81704;BME280;71117;52.352;4.808;2023-12-14T08:40:09;101916.78;;;4.46;86.75
81704;BME280;71117;52.352;4.808;2023-12-14T08:42:35;101924.00;;;4.50;87.10
81704;BME280;71117;52.352;4.808;2023-12-14T08:45:03;101920.13;;;4.59;87.69
81704;BME280;71117;52.352;4.808;2023-12-14T08:47:31;101924.38;;;4.71;88.30
81704;BME280;71117;52.352;4.808;2023-12-14T08:50:04;101931.38;;;4.87;86.55
81704;BME280;71117;52.352;4.808;2023-12-14T08:52:32;101945.38;;;5.02;86.76
81704;BME280;71117;52.352;4.808;2023-12-14T08:55:00;101952.38;;;5.18;86.04
81704;BME280;71117;52.352;4.808;2023-12-14T08:57:28;101952.44;;;5.35;84.98
81704;BME280;71117;52.352;4.808;2023-12-14T08:59:53;101960.50;;;5.54;84.08
81704;BME280;71117;52.352;4.808;2023-12-14T09:02:21;101965.13;;;5.74;82.45
81704;BME280;71117;52.352;4.808;2023-12-14T09:04:49;101975.53;;;5.89;80.70
81704;BME280;71117;52.352;4.808;2023-12-14T09:07:19;101983.44;;;6.05;79.48
81704;BME280;71117;52.352;4.808;2023-12-14T09:09:45;101985.84;;;6.17;79.09
81704;BME280;71117;52.352;4.808;2023-12-14T09:12:13;101978.72;;;6.31;77.81
81704;BME280;71117;52.352;4.808;2023-12-14T09:14:38;101989.47;;;6.35;77.55
81704;BME280;71117;52.352;4.808;2023-12-14T09:17:06;102000.53;;;6.46;77.21
81704;BME280;71117;52.352;4.808;2023-12-14T09:19:34;101998.88;;;6.48;78.42
81704;BME280;71117;52.352;4.808;2023-12-14T09:22:04;101989.78;;;6.42;77.83
81704;BME280;71117;52.352;4.808;2023-12-14T09:24:35;101998.78;;;6.47;77.11
81704;BME280;71117;52.352;4.808;2023-12-14T09:27:01;101990.03;;;6.46;76.72
81704;BME280;71117;52.352;4.808;2023-12-14T09:29:26;101992.06;;;6.52;77.07
81704;BME280;71117;52.352;4.808;2023-12-14T09:31:52;101991.41;;;6.40;79.04
81704;BME280;71117;52.352;4.808;2023-12-14T09:34:17;101998.53;;;6.42;77.31
81704;BME280;71117;52.352;4.808;2023-12-14T09:36:42;101997.31;;;6.35;77.23
81704;BME280;71117;52.352;4.808;2023-12-14T09:39:08;102018.47;;;6.39;77.48
81704;BME280;71117;52.352;4.808;2023-12-14T09:41:39;102019.69;;;6.45;76.92
81704;BME280;71117;52.352;4.808;2023-12-14T09:44:09;102025.69;;;6.43;77.13
81704;BME280;71117;52.352;4.808;2023-12-14T09:46:37;102022.66;;;6.51;76.98
81704;BME280;71117;52.352;4.808;2023-12-14T09:49:04;102038.28;;;6.50;78.03
81704;BME280;71117;52.352;4.808;2023-12-14T09:51:30;102030.28;;;6.47;77.82
81704;BME280;71117;52.352;4.808;2023-12-14T09:54:01;102025.94;;;6.47;77.98
81704;BME280;71117;52.352;4.808;2023-12-14T09:56:30;102041.09;;;6.53;77.77
81704;BME280;71117;52.352;4.808;2023-12-14T09:58:55;102035.84;;;6.53;78.83
81704;BME280;71117;52.352;4.808;2023-12-14T10:01:26;102045.69;;;6.57;77.07
81704;BME280;71117;52.352;4.808;2023-12-14T10:04:15;102040.50;;;6.75;75.33
81704;BME280;71117;52.352;4.808;2023-12-14T10:06:44;102031.34;;;6.84;75.77
81704;BME280;71117;52.352;4.808;2023-12-14T10:09:12;102033.66;;;6.95;76.96
81704;BME280;71117;52.352;4.808;2023-12-14T10:11:43;102041.06;;;7.20;76.62
81704;BME280;71117;52.352;4.808;2023-12-14T10:14:24;102046.88;;;7.48;75.62
81704;BME280;71117;52.352;4.808;2023-12-14T10:16:52;102057.06;;;7.60;72.14
81704;BME280;71117;52.352;4.808;2023-12-14T10:19:23;102053.63;;;8.16;70.87
81704;BME280;71117;52.352;4.808;2023-12-14T10:21:50;102057.78;;;8.48;67.87
81704;BME280;71117;52.352;4.808;2023-12-14T10:24:16;102056.72;;;8.64;67.51
81704;BME280;71117;52.352;4.808;2023-12-14T10:26:44;102047.72;;;9.18;67.12
81704;BME280;71117;52.352;4.808;2023-12-14T10:29:10;102038.56;;;9.52;65.44
81704;BME280;71117;52.352;4.808;2023-12-14T10:31:36;102057.44;;;9.84;67.39
81704;BME280;71117;52.352;4.808;2023-12-14T10:34:11;102057.78;;;9.93;65.27
81704;BME280;71117;52.352;4.808;2023-12-14T10:36:40;102051.38;;;9.86;64.04
81704;BME280;71117;52.352;4.808;2023-12-14T10:39:07;102047.38;;;9.73;64.17
81704;BME280;71117;52.352;4.808;2023-12-14T10:41:33;102047.13;;;9.67;65.42
81704;BME280;71117;52.352;4.808;2023-12-14T10:44:03;102058.53;;;9.89;65.99
81704;BME280;71117;52.352;4.808;2023-12-14T10:46:29;102050.16;;;10.21;63.98
81704;BME280;71117;52.352;4.808;2023-12-14T10:49:00;102051.88;;;10.43;63.15
81704;BME280;71117;52.352;4.808;2023-12-14T10:51:27;102039.25;;;10.58;61.21
81704;BME280;71117;52.352;4.808;2023-12-14T10:53:53;102050.81;;;10.86;61.60
81704;BME280;71117;52.352;4.808;2023-12-14T10:56:22;102056.03;;;10.60;61.77
81704;BME280;71117;52.352;4.808;2023-12-14T10:58:57;102069.66;;;10.25;60.31
81704;BME280;71117;52.352;4.808;2023-12-14T11:01:24;102054.44;;;9.97;62.08
81704;BME280;71117;52.352;4.808;2023-12-14T11:03:53;102057.69;;;9.90;63.05
81704;BME280;71117;52.352;4.808;2023-12-14T11:06:26;102070.22;;;9.95;63.06
81704;BME280;71117;52.352;4.808;2023-12-14T11:09:04;102068.97;;;10.53;61.58
81704;BME280;71117;52.352;4.808;2023-12-14T11:14:26;102070.38;;;10.91;58.41
81704;BME280;71117;52.352;4.808;2023-12-14T11:17:24;102061.47;;;11.13;58.34
81704;BME280;71117;52.352;4.808;2023-12-14T11:19:49;102075.78;;;12.26;57.38
81704;BME280;71117;52.352;4.808;2023-12-14T11:22:26;102074.13;;;13.56;53.88
81704;BME280;71117;52.352;4.808;2023-12-14T11:24:53;102087.06;;;13.12;53.06
81704;BME280;71117;52.352;4.808;2023-12-14T11:27:26;102089.78;;;11.68;57.88
81704;BME280;71117;52.352;4.808;2023-12-14T11:29:53;102097.34;;;10.82;60.81
81704;BME280;71117;52.352;4.808;2023-12-14T11:32:18;102093.66;;;10.55;61.71
81704;BME280;71117;52.352;4.808;2023-12-14T11:34:46;102101.44;;;9.85;64.21
81704;BME280;71117;52.352;4.808;2023-12-14T11:37:12;102110.81;;;9.56;66.64
81704;BME280;71117;52.352;4.808;2023-12-14T11:39:40;102110.09;;;9.39;67.14
81704;BME280;71117;52.352;4.808;2023-12-14T11:42:06;102102.47;;;9.25;67.54
81704;BME280;71117;52.352;4.808;2023-12-14T11:44:38;102109.72;;;9.10;67.40
81704;BME280;71117;52.352;4.808;2023-12-14T11:47:10;102119.03;;;8.83;68.07
81704;BME280;71117;52.352;4.808;2023-12-14T11:49:36;102116.81;;;8.72;68.30
81704;BME280;71117;52.352;4.808;2023-12-14T11:52:05;102114.31;;;8.56;69.99
81704;BME280;71117;52.352;4.808;2023-12-14T11:54:30;102118.41;;;8.32;70.28
81704;BME280;71117;52.352;4.808;2023-12-14T11:57:01;102118.31;;;8.30;70.99
81704;BME280;71117;52.352;4.808;2023-12-14T11:59:31;102127.00;;;8.10;70.83
81704;BME280;71117;52.352;4.808;2023-12-14T12:02:01;102120.44;;;8.02;71.25
81704;BME280;71117;52.352;4.808;2023-12-14T12:04:27;102137.00;;;7.81;72.09
81704;BME280;71117;52.352;4.808;2023-12-14T12:07:21;102130.31;;;7.70;72.43
81704;BME280;71117;52.352;4.808;2023-12-14T12:12:42;102123.69;;;7.60;73.22
81704;BME280;71117;52.352;4.808;2023-12-14T12:15:13;102115.81;;;7.60;72.99
81704;BME280;71117;52.352;4.808;2023-12-14T12:17:40;102115.88;;;7.62;72.49
81704;BME280;71117;52.352;4.808;2023-12-14T12:20:09;102120.16;;;7.60;73.01
81704;BME280;71117;52.352;4.808;2023-12-14T12:22:41;102110.94;;;7.86;71.57
81704;BME280;71117;52.352;4.808;2023-12-14T12:28:16;102104.88;;;8.42;71.17
81704;BME280;71117;52.352;4.808;2023-12-14T12:30:42;102103.09;;;8.99;68.87
81704;BME280;71117;52.352;4.808;2023-12-14T12:33:07;102126.00;;;8.63;69.30
81704;BME280;71117;52.352;4.808;2023-12-14T12:35:33;102125.25;;;8.28;71.09
81704;BME280;71117;52.352;4.808;2023-12-14T12:37:59;102121.34;;;8.02;71.56
81704;BME280;71117;52.352;4.808;2023-12-14T12:40:24;102118.94;;;8.07;72.51
81704;BME280;71117;52.352;4.808;2023-12-14T12:43:03;102136.31;;;7.85;72.69
81704;BME280;71117;52.352;4.808;2023-12-14T12:45:28;102117.84;;;7.84;72.89
81704;BME280;71117;52.352;4.808;2023-12-14T12:47:54;102113.25;;;7.98;73.13
81704;BME280;71117;52.352;4.808;2023-12-14T12:50:22;102125.28;;;8.10;73.23
81704;BME280;71117;52.352;4.808;2023-12-14T12:52:59;102123.09;;;8.37;73.18
81704;BME280;71117;52.352;4.808;2023-12-14T12:55:34;102124.50;;;8.31;72.36
81704;BME280;71117;52.352;4.808;2023-12-14T12:58:17;102127.81;;;8.27;72.13
81704;BME280;71117;52.352;4.808;2023-12-14T13:00:43;102128.78;;;8.29;72.79
81704;BME280;71117;52.352;4.808;2023-12-14T13:03:08;102133.28;;;8.31;73.27
81704;BME280;71117;52.352;4.808;2023-12-14T13:05:35;102130.81;;;8.16;72.27
81704;BME280;71117;52.352;4.808;2023-12-14T13:08:03;102130.47;;;8.09;71.84
81704;BME280;71117;52.352;4.808;2023-12-14T13:10:31;102148.13;;;8.11;72.44
81704;BME280;71117;52.352;4.808;2023-12-14T13:12:59;102145.44;;;7.92;72.07
81704;BME280;71117;52.352;4.808;2023-12-14T13:15:25;102156.38;;;7.83;72.66